createdAt,value
2017-10-16T00:02:09.483Z,9.13
2017-10-16T00:04:47.291Z,8.40
2017-10-16T00:07:21.893Z,8.33
2017-10-16T00:09:57.211Z,7.70
2017-10-16T00:12:31.832Z,9.53
2017-10-16T00:15:07.029Z,8.40
2017-10-16T00:17:41.597Z,7.50
2017-10-16T00:20:17.587Z,8.60
2017-10-16T00:22:54.951Z,7.83
2017-10-16T00:25:30.045Z,8.43
2017-10-16T00:28:04.570Z,7.80
2017-10-16T00:30:39.765Z,7.53
2017-10-16T00:33:14.481Z,8.60
2017-10-16T00:35:49.329Z,8.30
2017-10-16T00:38:23.953Z,8.53
2017-10-16T00:40:59.385Z,8.97
2017-10-16T00:43:34.707Z,8.00
2017-10-16T00:46:09.309Z,8.57
2017-10-16T00:48:44.618Z,7.60
2017-10-16T00:51:22.678Z,8.80
2017-10-16T00:53:57.503Z,8.43
2017-10-16T00:56:32.479Z,8.33
2017-10-16T00:59:07.433Z,7.47
2017-10-16T01:01:42.293Z,7.70
2017-10-16T01:04:19.442Z,7.67
2017-10-16T01:06:56.584Z,7.50
2017-10-16T01:09:31.407Z,8.00
2017-10-16T01:12:06.863Z,7.90
2017-10-16T01:14:42.089Z,7.93
2017-10-16T01:17:16.707Z,7.07
2017-10-16T01:19:52.044Z,7.80
2017-10-16T01:22:27.518Z,8.17
2017-10-16T01:25:02.361Z,7.40
2017-10-16T01:27:42.853Z,8.03
2017-10-16T01:30:19.562Z,7.03
2017-10-16T01:32:56.260Z,7.13
2017-10-16T01:35:31.751Z,6.53
2017-10-16T01:38:09.126Z,6.97
2017-10-16T01:40:43.984Z,7.87
2017-10-16T01:43:19.850Z,6.57
2017-10-16T01:45:54.349Z,6.20
2017-10-16T01:48:31.526Z,6.63
2017-10-16T01:51:07.013Z,8.40
2017-10-16T01:53:41.815Z,7.73
2017-10-16T01:56:16.538Z,6.87
2017-10-16T01:58:51.092Z,7.53
2017-10-16T02:01:31.930Z,6.50
2017-10-16T02:04:07.063Z,6.67
2017-10-16T02:06:42.463Z,7.10
2017-10-16T02:09:17.017Z,7.43
2017-10-16T02:11:52.438Z,7.10
2017-10-16T02:14:27.313Z,7.23
2017-10-16T02:17:01.793Z,6.80
2017-10-16T02:19:36.473Z,7.53
2017-10-16T02:22:11.177Z,6.40
2017-10-16T02:24:45.898Z,6.43
2017-10-16T02:27:23.427Z,7.60
2017-10-16T02:29:57.947Z,7.10
2017-10-16T02:32:32.746Z,6.87
2017-10-16T02:35:07.410Z,7.37
2017-10-16T02:37:42.066Z,7.67
2017-10-16T02:40:21.061Z,7.40
2017-10-16T02:42:55.615Z,7.10
2017-10-16T02:45:31.315Z,6.93
2017-10-16T02:48:08.175Z,6.93
2017-10-16T02:50:42.705Z,7.47
2017-10-16T02:53:20.301Z,6.77
2017-10-16T02:55:55.559Z,7.17
2017-10-16T02:58:30.280Z,7.43
2017-10-16T03:01:05.308Z,5.97
2017-10-16T03:03:39.876Z,7.03
2017-10-16T03:06:14.364Z,5.80
2017-10-16T03:08:48.884Z,5.60
2017-10-16T03:11:23.793Z,6.80
2017-10-16T03:14:00.229Z,6.57
2017-10-16T03:16:39.312Z,6.97
2017-10-16T03:19:14.137Z,6.83
2017-10-16T03:21:55.303Z,6.00
2017-10-16T03:24:30.196Z,6.57
2017-10-16T03:27:07.410Z,6.50
2017-10-16T03:29:42.276Z,6.43
2017-10-16T03:32:18.961Z,6.57
2017-10-16T03:34:53.456Z,6.33
2017-10-16T03:37:29.506Z,5.60
2017-10-16T03:40:04.536Z,6.60
2017-10-16T03:42:41.145Z,6.47
2017-10-16T03:45:16.440Z,6.83
2017-10-16T03:47:51.505Z,5.93
2017-10-16T03:50:26.946Z,5.50
2017-10-16T03:52:55.030Z,5.70
2017-10-16T03:55:35.583Z,5.67
2017-10-16T03:58:21.260Z,5.67
2017-10-16T04:00:56.704Z,5.20
2017-10-16T04:03:23.568Z,5.43
2017-10-16T04:05:58.744Z,5.37
2017-10-16T04:08:38.057Z,5.40
2017-10-16T04:11:19.713Z,4.90
2017-10-16T04:14:00.077Z,4.93
2017-10-16T04:16:34.851Z,5.50
2017-10-16T04:19:11.275Z,4.90
2017-10-16T04:21:46.098Z,5.40
2017-10-16T04:24:22.272Z,6.10
2017-10-16T04:27:01.693Z,5.30
2017-10-16T04:29:36.346Z,4.77
2017-10-16T04:32:11.962Z,5.67
2017-10-16T04:34:47.634Z,4.63
2017-10-16T04:37:22.196Z,5.50
2017-10-16T04:39:56.835Z,5.13
2017-10-16T04:42:32.231Z,5.00
2017-10-16T04:45:07.001Z,5.03
2017-10-16T04:47:42.406Z,5.43
2017-10-16T04:50:09.954Z,4.80
2017-10-16T04:52:44.700Z,5.10
2017-10-16T04:55:20.939Z,4.97
2017-10-16T04:57:55.989Z,4.97
2017-10-16T05:00:32.964Z,4.60
2017-10-16T05:03:08.414Z,4.17
2017-10-16T05:05:43.633Z,5.40
2017-10-16T05:08:18.098Z,5.40
2017-10-16T05:10:52.858Z,4.77
2017-10-16T05:13:27.758Z,5.23
2017-10-16T05:16:03.931Z,4.30
2017-10-16T05:18:45.363Z,4.80
2017-10-16T05:21:21.056Z,4.93
2017-10-16T05:23:57.304Z,4.50
2017-10-16T05:26:32.796Z,4.77
2017-10-16T05:29:08.449Z,5.60
2017-10-16T05:31:46.797Z,4.40
2017-10-16T05:34:22.239Z,4.50
2017-10-16T05:37:01.093Z,4.70
2017-10-16T05:39:36.588Z,5.00
2017-10-16T05:42:11.277Z,4.87
2017-10-16T05:44:46.631Z,4.93
2017-10-16T05:47:23.272Z,4.70
2017-10-16T05:49:58.031Z,4.70
2017-10-16T05:52:33.016Z,4.70
2017-10-16T05:55:08.001Z,4.83
2017-10-16T05:57:46.060Z,5.10
2017-10-16T06:00:20.640Z,4.67
2017-10-16T06:03:07.861Z,5.37
2017-10-16T06:05:43.304Z,5.20
2017-10-16T06:08:18.900Z,5.07
2017-10-16T06:10:54.065Z,4.47
2017-10-16T06:13:28.754Z,4.73
2017-10-16T06:16:04.413Z,4.93
2017-10-16T06:18:41.095Z,5.13
2017-10-16T06:21:15.703Z,5.20
2017-10-16T06:23:54.965Z,5.10
2017-10-16T06:26:30.429Z,4.53
2017-10-16T06:29:09.203Z,4.90
2017-10-16T06:31:45.886Z,6.00
2017-10-16T06:34:20.568Z,5.10
2017-10-16T06:36:57.233Z,6.13
2017-10-16T06:39:34.093Z,11.47
2017-10-16T06:42:09.433Z,11.60
2017-10-16T06:44:44.901Z,6.80
2017-10-16T06:47:20.471Z,7.33
2017-10-16T06:49:55.172Z,8.97
2017-10-16T06:52:30.278Z,7.60
2017-10-16T06:55:05.811Z,7.90
2017-10-16T06:57:40.390Z,6.20
2017-10-16T07:00:17.937Z,5.73
2017-10-16T07:02:52.770Z,5.40
2017-10-16T07:05:28.112Z,6.47
2017-10-16T07:08:05.005Z,6.00
2017-10-16T07:10:42.890Z,5.10
2017-10-16T07:13:17.820Z,6.73
2017-10-16T07:15:53.238Z,5.33
2017-10-16T07:18:27.940Z,5.70
2017-10-16T07:21:03.105Z,4.73
2017-10-16T07:23:39.837Z,4.10
2017-10-16T07:26:15.361Z,4.33
2017-10-16T07:28:57.069Z,4.60
2017-10-16T07:31:33.095Z,5.40
2017-10-16T07:34:07.917Z,4.47
2017-10-16T07:36:44.298Z,4.20
2017-10-16T07:39:19.534Z,4.43
2017-10-16T07:41:55.567Z,5.07
2017-10-16T07:44:30.144Z,4.17
2017-10-16T07:47:06.735Z,4.67
2017-10-16T07:49:41.626Z,4.30
2017-10-16T07:52:16.396Z,5.03
2017-10-16T07:54:51.117Z,4.87
2017-10-16T07:57:26.259Z,4.40
2017-10-16T08:00:00.881Z,5.63
2017-10-16T08:02:28.705Z,4.73
2017-10-16T08:05:04.543Z,5.23
2017-10-16T08:07:39.777Z,4.50
2017-10-16T08:10:20.293Z,5.00
2017-10-16T08:13:01.110Z,4.57
2017-10-16T08:15:35.814Z,4.50
2017-10-16T08:18:10.664Z,5.00
2017-10-16T08:20:45.516Z,4.90
2017-10-16T08:23:20.582Z,4.70
2017-10-16T08:25:55.469Z,4.53
2017-10-16T08:28:30.515Z,16.93
2017-10-16T08:31:05.389Z,4.97
2017-10-16T08:33:42.254Z,5.37
2017-10-16T08:36:16.904Z,5.67
2017-10-16T08:38:54.162Z,7.73
2017-10-16T08:41:29.282Z,5.10
2017-10-16T08:44:04.206Z,9.80
2017-10-16T08:46:39.137Z,6.57
2017-10-16T08:49:15.026Z,13.40
2017-10-16T08:51:49.687Z,6.20
2017-10-16T08:54:26.806Z,13.40
2017-10-16T08:57:02.537Z,12.80
2017-10-16T08:59:43.058Z,4.60
2017-10-16T09:02:18.269Z,4.73
2017-10-16T09:04:54.714Z,8.23
2017-10-16T09:07:32.027Z,5.20
2017-10-16T09:10:12.673Z,5.60
2017-10-16T09:12:48.017Z,4.57
2017-10-16T09:15:26.654Z,3.50
2017-10-16T09:18:03.652Z,6.00
2017-10-16T09:20:38.281Z,4.30
2017-10-16T09:23:13.975Z,4.03
2017-10-16T09:25:50.375Z,4.40
2017-10-16T09:28:25.000Z,3.47
2017-10-16T09:31:01.502Z,4.00
2017-10-16T09:33:37.252Z,4.20
2017-10-16T09:36:16.137Z,3.33
2017-10-16T09:38:50.851Z,4.37
2017-10-16T09:41:25.912Z,3.63
2017-10-16T09:44:00.844Z,4.80
2017-10-16T09:46:35.969Z,4.60
2017-10-16T09:49:11.201Z,3.60
2017-10-16T09:51:48.411Z,3.70
2017-10-16T09:54:23.710Z,4.87
2017-10-16T09:57:01.172Z,4.63
2017-10-16T09:59:36.070Z,5.60
2017-10-16T10:02:02.922Z,4.57
2017-10-16T10:04:38.134Z,3.70
2017-10-16T10:07:12.765Z,4.30
2017-10-16T10:09:48.119Z,5.43
2017-10-16T10:12:24.105Z,3.57
2017-10-16T10:14:59.294Z,4.17
2017-10-16T10:17:37.028Z,4.00
2017-10-16T10:20:11.652Z,3.70
2017-10-16T10:22:47.298Z,3.67
2017-10-16T10:25:23.733Z,4.30
2017-10-16T10:27:59.315Z,4.63
2017-10-16T10:30:33.957Z,3.70
2017-10-16T10:33:11.116Z,4.57
2017-10-16T10:35:45.546Z,3.83
2017-10-16T10:38:22.894Z,4.27
2017-10-16T10:40:58.102Z,7.60
2017-10-16T10:43:32.860Z,5.60
2017-10-16T10:46:09.679Z,6.17
2017-10-16T10:48:44.683Z,7.33
2017-10-16T10:51:19.975Z,3.80
2017-10-16T10:53:54.660Z,3.73
2017-10-16T10:56:31.801Z,3.80
2017-10-16T10:59:10.684Z,7.30
2017-10-16T11:01:46.023Z,6.90
2017-10-16T11:04:21.299Z,4.70
2017-10-16T11:06:56.540Z,7.27
2017-10-16T11:09:31.219Z,4.40
2017-10-16T11:12:06.752Z,4.17
2017-10-16T11:14:42.012Z,3.73
2017-10-16T11:17:17.467Z,4.20
2017-10-16T11:19:52.467Z,3.80
2017-10-16T11:22:27.543Z,4.20
2017-10-16T11:25:07.096Z,4.40
2017-10-16T11:27:42.367Z,4.10
2017-10-16T11:30:16.978Z,4.47
2017-10-16T11:32:53.972Z,4.37
2017-10-16T11:35:29.782Z,3.67
2017-10-16T11:38:06.596Z,4.33
2017-10-16T11:40:42.417Z,4.60
2017-10-16T11:43:18.767Z,4.40
2017-10-16T11:45:55.515Z,4.60
2017-10-16T11:48:30.881Z,4.43
2017-10-16T11:51:06.951Z,4.57
2017-10-16T11:53:41.580Z,4.33
2017-10-16T11:56:19.966Z,4.47
2017-10-16T11:59:14.117Z,4.53
2017-10-16T12:01:58.653Z,4.73
2017-10-16T12:04:38.663Z,4.80
2017-10-16T12:07:18.839Z,3.93
2017-10-16T12:09:53.854Z,3.30
2017-10-16T12:12:29.308Z,3.87
2017-10-16T12:15:04.061Z,3.40
2017-10-16T12:17:41.974Z,3.43
2017-10-16T12:20:17.074Z,2.70
2017-10-16T12:22:51.814Z,3.63
2017-10-16T12:25:26.712Z,3.37
2017-10-16T12:28:01.435Z,3.30
2017-10-16T12:30:36.112Z,3.53
2017-10-16T12:33:14.714Z,3.30
2017-10-16T12:35:50.060Z,3.30
2017-10-16T12:38:39.866Z,3.47
2017-10-16T12:41:14.372Z,2.67
2017-10-16T12:43:49.236Z,3.50
2017-10-16T12:46:24.162Z,3.00
2017-10-16T12:48:59.776Z,2.90
2017-10-16T12:51:34.699Z,2.87
2017-10-16T12:54:11.982Z,2.67
2017-10-16T12:56:47.104Z,3.17
2017-10-16T12:59:22.317Z,3.30
2017-10-16T13:01:57.678Z,3.23
2017-10-16T13:04:33.636Z,2.93
2017-10-16T13:07:11.095Z,2.60
2017-10-16T13:09:39.509Z,3.40
2017-10-16T13:12:14.670Z,3.13
2017-10-16T13:14:49.475Z,2.90
2017-10-16T13:17:26.896Z,3.40
2017-10-16T13:20:03.193Z,3.37
2017-10-16T13:22:38.194Z,3.00
2017-10-16T13:25:12.978Z,3.23
2017-10-16T13:27:48.069Z,2.77
2017-10-16T13:30:23.598Z,2.77
2017-10-16T13:32:58.970Z,3.50
2017-10-16T13:35:35.905Z,3.43
2017-10-16T13:38:11.214Z,3.27
2017-10-16T13:40:47.537Z,3.10
2017-10-16T13:43:22.904Z,3.30
2017-10-16T13:45:59.126Z,3.70
2017-10-16T13:48:36.528Z,3.97
2017-10-16T13:51:11.742Z,3.90
2017-10-16T13:53:46.929Z,3.90
2017-10-16T13:56:23.372Z,3.07
2017-10-16T13:58:58.576Z,3.97
2017-10-16T14:01:35.577Z,3.33
2017-10-16T14:04:10.476Z,5.10
2017-10-16T14:06:47.064Z,3.10
2017-10-16T14:09:22.030Z,3.80
2017-10-16T14:11:57.195Z,3.93
2017-10-16T14:14:31.936Z,4.70
2017-10-16T14:17:08.270Z,3.73
2017-10-16T14:19:43.239Z,3.40
2017-10-16T14:22:18.216Z,4.00
2017-10-16T14:24:52.794Z,3.67
2017-10-16T14:27:27.493Z,4.03
2017-10-16T14:30:02.853Z,3.40
2017-10-16T14:32:37.516Z,4.07
2017-10-16T14:35:12.560Z,3.53
2017-10-16T14:37:49.055Z,3.70
2017-10-16T14:40:24.146Z,3.90
2017-10-16T14:43:04.361Z,3.50
2017-10-16T14:45:40.175Z,3.93
2017-10-16T14:48:17.488Z,3.43
2017-10-16T14:50:54.098Z,4.17
2017-10-16T14:53:29.585Z,4.10
2017-10-16T14:55:56.450Z,4.10
2017-10-16T14:58:33.018Z,4.40
2017-10-16T15:01:10.797Z,4.10
2017-10-16T15:03:47.298Z,4.53
2017-10-16T15:06:22.259Z,3.93
2017-10-16T15:08:57.188Z,4.00
2017-10-16T15:11:32.426Z,3.93
2017-10-16T15:14:08.066Z,4.83
2017-10-16T15:16:48.192Z,4.27
2017-10-16T15:19:23.986Z,4.13
2017-10-16T15:21:58.531Z,3.90
2017-10-16T15:24:34.351Z,5.20
2017-10-16T15:27:08.976Z,4.60
2017-10-16T15:29:46.435Z,7.10
2017-10-16T15:32:21.604Z,5.10
2017-10-16T15:35:02.239Z,4.90
2017-10-16T15:37:39.170Z,4.93
2017-10-16T15:40:17.750Z,4.63
2017-10-16T15:42:55.122Z,4.60
2017-10-16T15:45:31.420Z,5.43
2017-10-16T15:48:06.083Z,5.80
2017-10-16T15:50:41.989Z,8.57
2017-10-16T15:53:17.378Z,9.97
2017-10-16T15:55:55.019Z,11.70
2017-10-16T15:58:31.440Z,10.70
2017-10-16T16:01:07.440Z,8.93
2017-10-16T16:06:38.622Z,6.40
2017-10-16T16:09:15.875Z,7.63
2017-10-16T16:11:53.592Z,7.10
2017-10-16T16:14:29.124Z,5.97
2017-10-16T16:17:03.857Z,6.27
2017-10-16T16:19:40.389Z,10.80
2017-10-16T16:22:16.107Z,13.40
2017-10-16T16:24:50.698Z,7.77
2017-10-16T16:27:26.297Z,9.40
2017-10-16T16:30:01.032Z,7.70
2017-10-16T16:32:38.504Z,7.27
2017-10-16T16:35:14.012Z,6.70
2017-10-16T16:37:50.396Z,6.37
2017-10-16T16:40:25.051Z,6.20
2017-10-16T16:43:00.464Z,5.67
2017-10-16T16:45:35.851Z,6.13
2017-10-16T16:48:10.498Z,6.20
2017-10-16T16:50:45.863Z,5.93
2017-10-16T16:53:21.456Z,5.87
2017-10-16T16:55:55.957Z,7.40
2017-10-16T16:58:32.552Z,8.70
2017-10-16T17:01:09.235Z,7.93
2017-10-16T17:03:47.545Z,8.87
2017-10-16T17:06:23.483Z,12.40
2017-10-16T17:09:00.826Z,10.87
2017-10-16T17:11:36.379Z,11.40
2017-10-16T17:14:11.000Z,10.30
2017-10-16T17:16:46.905Z,13.07
2017-10-16T17:19:15.513Z,10.47
2017-10-16T17:21:50.428Z,9.87
2017-10-16T17:24:25.859Z,9.27
2017-10-16T17:27:01.824Z,8.60
2017-10-16T17:29:39.994Z,9.50
2017-10-16T17:32:19.961Z,12.23
2017-10-16T17:34:57.645Z,10.37
2017-10-16T17:37:34.284Z,9.83
2017-10-16T17:40:09.184Z,10.47
2017-10-16T17:42:44.134Z,8.73
2017-10-16T17:45:19.463Z,8.43
2017-10-16T17:47:54.237Z,6.47
2017-10-16T17:50:29.703Z,6.90
2017-10-16T17:53:04.373Z,7.43
2017-10-16T17:55:43.262Z,9.87
2017-10-16T17:58:18.683Z,7.60
2017-10-16T18:00:55.206Z,7.30
2017-10-16T18:03:22.070Z,7.10
2017-10-16T18:05:59.118Z,6.90
2017-10-16T18:08:33.965Z,6.67
2017-10-16T18:11:10.512Z,8.13
2017-10-16T18:13:50.231Z,6.10
2017-10-16T18:16:27.342Z,6.43
2017-10-16T18:19:04.661Z,7.00
2017-10-16T18:21:39.355Z,6.00
2017-10-16T18:24:14.090Z,5.80
2017-10-16T18:26:49.627Z,6.37
2017-10-16T18:29:27.092Z,6.13
2017-10-16T18:32:02.434Z,6.27
2017-10-16T18:34:37.239Z,5.90
2017-10-16T18:37:13.941Z,6.57
2017-10-16T18:39:49.369Z,6.30
2017-10-16T18:42:23.961Z,5.70
2017-10-16T18:44:58.741Z,5.80
2017-10-16T18:47:34.875Z,5.50
2017-10-16T18:50:10.085Z,5.97
2017-10-16T18:52:45.651Z,6.83
2017-10-16T18:55:20.199Z,8.60
2017-10-16T18:57:56.186Z,8.70
2017-10-16T19:00:31.013Z,7.20
2017-10-16T19:03:08.513Z,6.27
2017-10-16T19:05:43.304Z,6.43
2017-10-16T19:08:18.900Z,5.60
2017-10-16T19:10:53.610Z,5.90
2017-10-16T19:13:29.276Z,5.63
2017-10-16T19:16:04.695Z,5.33
2017-10-16T19:18:41.522Z,7.10
2017-10-16T19:21:16.369Z,6.70
2017-10-16T19:23:57.667Z,8.43
2017-10-16T19:26:33.586Z,7.70
2017-10-16T19:29:08.769Z,6.80
2017-10-16T19:31:43.545Z,5.90
2017-10-16T19:34:19.502Z,6.00
2017-10-16T19:36:54.524Z,6.03
2017-10-16T19:39:30.658Z,5.60
2017-10-16T19:42:05.714Z,5.73
2017-10-16T19:44:41.246Z,5.13
2017-10-16T19:47:18.516Z,5.87
2017-10-16T19:49:56.042Z,5.70
2017-10-16T19:52:32.809Z,5.30
2017-10-16T19:57:52.545Z,5.10
2017-10-16T20:00:27.344Z,5.80
2017-10-16T20:02:54.173Z,5.27
2017-10-16T20:05:29.678Z,6.13
2017-10-16T20:08:04.971Z,6.00
2017-10-16T20:10:45.701Z,5.53
2017-10-16T20:13:22.403Z,5.57
2017-10-16T20:15:58.479Z,5.53
2017-10-16T20:18:33.088Z,5.80
2017-10-16T20:21:13.349Z,5.47
2017-10-16T20:23:48.539Z,6.17
2017-10-16T20:26:26.095Z,5.17
2017-10-16T20:29:01.159Z,5.57
2017-10-16T20:31:39.748Z,6.03
2017-10-16T20:34:14.854Z,6.07
2017-10-16T20:36:49.661Z,6.63
2017-10-16T20:39:24.865Z,5.77
2017-10-16T20:42:14.241Z,5.60
2017-10-16T20:44:54.003Z,6.00
2017-10-16T20:47:30.622Z,5.93
2017-10-16T20:50:05.635Z,6.30
2017-10-16T20:52:40.308Z,4.93
2017-10-16T20:55:14.882Z,5.77
2017-10-16T20:57:52.210Z,6.07
2017-10-16T21:00:27.864Z,5.77
2017-10-16T21:03:05.145Z,5.27
2017-10-16T21:05:45.330Z,5.30
2017-10-16T21:08:25.872Z,5.53
2017-10-16T21:11:00.600Z,5.77
2017-10-16T21:13:36.599Z,5.90
2017-10-16T21:16:11.797Z,6.83
2017-10-16T21:18:48.989Z,6.00
2017-10-16T21:21:24.178Z,5.60
2017-10-16T21:24:00.474Z,5.30
2017-10-16T21:26:35.174Z,5.60
2017-10-16T21:29:10.667Z,5.40
2017-10-16T21:31:46.027Z,6.73
2017-10-16T21:34:21.723Z,6.07
2017-10-16T21:36:57.176Z,5.60
2017-10-16T21:39:34.366Z,5.67
2017-10-16T21:42:09.627Z,5.07
2017-10-16T21:44:44.551Z,5.27
2017-10-16T21:47:23.993Z,5.10
2017-10-16T21:49:59.101Z,4.60
2017-10-16T21:52:33.845Z,5.87
2017-10-16T21:55:10.760Z,4.10
2017-10-16T21:57:47.600Z,5.00
2017-10-16T22:00:24.407Z,4.93
2017-10-16T22:05:54.446Z,4.40
2017-10-16T22:08:29.934Z,4.47
2017-10-16T22:11:05.715Z,4.33
2017-10-16T22:13:40.896Z,5.07
2017-10-16T22:16:17.206Z,5.23
2017-10-16T22:18:51.871Z,4.10
2017-10-16T22:21:30.251Z,5.10
2017-10-16T22:24:06.589Z,4.60
2017-10-16T22:26:41.376Z,4.53
2017-10-16T22:29:16.819Z,4.20
2017-10-16T22:31:56.339Z,4.87
2017-10-16T22:34:31.153Z,3.53
2017-10-16T22:39:46.548Z,3.70
2017-10-16T22:42:22.013Z,4.10
2017-10-16T22:44:56.861Z,4.50
2017-10-16T22:47:34.129Z,4.17
2017-10-16T22:50:09.038Z,4.20
2017-10-16T22:52:43.692Z,6.13
2017-10-16T22:55:18.601Z,4.17
2017-10-16T22:57:56.617Z,4.00
2017-10-16T23:00:36.327Z,4.23
2017-10-16T23:03:11.486Z,4.30
2017-10-16T23:05:46.830Z,4.17
2017-10-16T23:08:23.087Z,5.30
2017-10-16T23:10:57.810Z,4.20
2017-10-16T23:13:33.417Z,5.13
2017-10-16T23:16:13.452Z,4.20
2017-10-16T23:18:48.819Z,4.00
2017-10-16T23:21:24.241Z,4.50
2017-10-16T23:23:58.920Z,4.20
2017-10-16T23:26:33.404Z,5.13
2017-10-16T23:29:08.558Z,4.17
2017-10-16T23:31:43.953Z,4.40
2017-10-16T23:34:18.512Z,4.77
2017-10-16T23:36:53.204Z,4.97
2017-10-16T23:39:28.734Z,4.30
2017-10-16T23:42:03.473Z,5.00
2017-10-16T23:44:38.990Z,4.30
2017-10-16T23:47:13.660Z,4.80
2017-10-16T23:49:48.319Z,4.80
2017-10-16T23:52:23.018Z,5.50
2017-10-16T23:54:58.500Z,5.47
2017-10-16T23:57:36.022Z,5.63
